sensor_id;sensor_type;location;lat;lon;timestamp;pressure;altitude;pressure_sealevel;temperature;humidity
6387;BME280;3226;42.162;24.756;2024-01-10T00:02:19;100990.91;;;-2.21;100.00
6387;BME280;3226;42.162;24.756;2024-01-10T00:04:48;100989.38;;;-2.47;100.00
6387;BME280;3226;42.162;24.756;2024-01-10T00:07:17;100975.81;;;-2.68;100.00
6387;BME280;3226;42.162;24.756;2024-01-10T00:09:45;101001.34;;;-2.46;100.00
6387;BME280;3226;42.162;24.756;2024-01-10T00:12:13;100996.28;;;-2.55;100.00
6387;BME280;3226;42.162;24.756;2024-01-10T00:14:41;100999.59;;;-2.41;100.00
6387;BME280;3226;42.162;24.756;2024-01-10T00:17:09;100993.38;;;-2.13;100.00
6387;BME280;3226;42.162;24.756;2024-01-10T00:19:37;100997.75;;;-2.20;100.00
6387;BME280;3226;42.162;24.756;2024-01-10T00:22:07;101004.75;;;-2.42;100.00
6387;BME280;3226;42.162;24.756;2024-01-10T00:24:35;100998.78;;;-2.44;100.00
6387;BME280;3226;42.162;24.756;2024-01-10T00:27:03;100999.50;;;-2.32;100.00
6387;BME280;3226;42.162;24.756;2024-01-10T00:29:32;101006.31;;;-2.23;100.00
6387;BME280;3226;42.162;24.756;2024-01-10T00:32:00;100998.59;;;-2.23;100.00
6387;BME280;3226;42.162;24.756;2024-01-10T00:34:28;101008.91;;;-2.27;100.00
6387;BME280;3226;42.162;24.756;2024-01-10T00:36:56;101017.41;;;-2.19;100.00
6387;BME280;3226;42.162;24.756;2024-01-10T00:39:25;100986.75;;;-2.36;100.00
6387;BME280;3226;42.162;24.756;2024-01-10T00:41:53;100969.59;;;-2.36;100.00
6387;BME280;3226;42.162;24.756;2024-01-10T00:44:21;101013.94;;;-2.15;100.00
6387;BME280;3226;42.162;24.756;2024-01-10T00:46:49;100904.03;;;-2.71;100.00
6387;BME280;3226;42.162;24.756;2024-01-10T00:49:17;101017.34;;;-2.11;100.00
6387;BME280;3226;42.162;24.756;2024-01-10T00:51:45;101017.22;;;-1.96;100.00
6387;BME280;3226;42.162;24.756;2024-01-10T00:54:13;101021.47;;;-1.95;100.00
6387;BME280;3226;42.162;24.756;2024-01-10T00:56:42;101019.91;;;-2.10;100.00
6387;BME280;3226;42.162;24.756;2024-01-10T00:59:10;101017.41;;;-2.21;100.00
6387;BME280;3226;42.162;24.756;2024-01-10T01:01:39;101020.75;;;-2.09;100.00
6387;BME280;3226;42.162;24.756;2024-01-10T01:04:07;101015.56;;;-2.03;100.00
6387;BME280;3226;42.162;24.756;2024-01-10T01:06:35;101020.66;;;-1.98;100.00
6387;BME280;3226;42.162;24.756;2024-01-10T01:09:03;100940.56;;;-2.41;100.00
6387;BME280;3226;42.162;24.756;2024-01-10T01:11:31;101011.22;;;-1.95;100.00
6387;BME280;3226;42.162;24.756;2024-01-10T01:14:00;101013.78;;;-1.93;100.00
6387;BME280;3226;42.162;24.756;2024-01-10T01:16:28;101007.91;;;-2.08;100.00
6387;BME280;3226;42.162;24.756;2024-01-10T01:18:56;101019.97;;;-2.19;100.00
6387;BME280;3226;42.162;24.756;2024-01-10T01:21:24;101015.69;;;-2.17;100.00
6387;BME280;3226;42.162;24.756;2024-01-10T01:23:52;101011.47;;;-2.24;100.00
6387;BME280;3226;42.162;24.756;2024-01-10T01:26:20;101020.88;;;-2.28;100.00
6387;BME280;3226;42.162;24.756;2024-01-10T01:28:48;100994.50;;;-2.42;100.00
6387;BME280;3226;42.162;24.756;2024-01-10T01:31:17;100964.56;;;-2.43;100.00
6387;BME280;3226;42.162;24.756;2024-01-10T01:33:45;101015.63;;;-2.09;100.00
6387;BME280;3226;42.162;24.756;2024-01-10T01:36:14;101018.31;;;-2.26;100.00
6387;BME280;3226;42.162;24.756;2024-01-10T01:38:42;101017.47;;;-2.30;100.00
6387;BME280;3226;42.162;24.756;2024-01-10T01:41:09;100991.97;;;-2.52;100.00
6387;BME280;3226;42.162;24.756;2024-01-10T01:43:38;101014.00;;;-2.21;100.00
6387;BME280;3226;42.162;24.756;2024-01-10T01:46:06;101021.50;;;-1.98;100.00
6387;BME280;3226;42.162;24.756;2024-01-10T01:48:36;101021.47;;;-1.95;100.00
6387;BME280;3226;42.162;24.756;2024-01-10T01:51:06;101022.50;;;-2.13;100.00
6387;BME280;3226;42.162;24.756;2024-01-10T01:53:35;100924.66;;;-2.83;100.00
6387;BME280;3226;42.162;24.756;2024-01-10T01:56:06;101009.69;;;-2.18;100.00
6387;BME280;3226;42.162;24.756;2024-01-10T01:58:35;100921.09;;;-2.64;100.00
6387;BME280;3226;42.162;24.756;2024-01-10T02:01:04;100983.13;;;-2.12;100.00
6387;BME280;3226;42.162;24.756;2024-01-10T02:03:33;100999.34;;;-2.10;100.00
6387;BME280;3226;42.162;24.756;2024-01-10T02:06:03;100999.31;;;-2.04;100.00
6387;BME280;3226;42.162;24.756;2024-01-10T02:08:32;100998.50;;;-2.07;100.00
6387;BME280;3226;42.162;24.756;2024-01-10T02:11:01;100990.66;;;-1.95;100.00
6387;BME280;3226;42.162;24.756;2024-01-10T02:13:30;100968.47;;;-2.00;100.00
6387;BME280;3226;42.162;24.756;2024-01-10T02:15:59;100988.91;;;-1.88;100.00
6387;BME280;3226;42.162;24.756;2024-01-10T02:18:28;100988.94;;;-1.93;100.00
6387;BME280;3226;42.162;24.756;2024-01-10T02:20:56;100988.97;;;-1.94;100.00
6387;BME280;3226;42.162;24.756;2024-01-10T02:23:25;100970.22;;;-2.06;100.00
6387;BME280;3226;42.162;24.756;2024-01-10T02:25:55;100990.72;;;-2.01;100.00
6387;BME280;3226;42.162;24.756;2024-01-10T02:28:23;100983.81;;;-1.91;100.00
6387;BME280;3226;42.162;24.756;2024-01-10T02:30:52;100986.31;;;-1.85;100.00
6387;BME280;3226;42.162;24.756;2024-01-10T02:33:22;100986.31;;;-1.86;100.00
6387;BME280;3226;42.162;24.756;2024-01-10T02:35:50;100991.44;;;-1.86;100.00
6387;BME280;3226;42.162;24.756;2024-01-10T02:38:18;100987.22;;;-1.89;100.00
6387;BME280;3226;42.162;24.756;2024-01-10T02:40:48;100972.72;;;-1.99;100.00
6387;BME280;3226;42.162;24.756;2024-01-10T02:43:17;100986.38;;;-1.91;100.00
6387;BME280;3226;42.162;24.756;2024-01-10T02:45:45;100988.09;;;-1.96;100.00
6387;BME280;3226;42.162;24.756;2024-01-10T02:48:13;100979.44;;;-1.84;100.00
6387;BME280;3226;42.162;24.756;2024-01-10T02:50:41;100781.22;;;-3.05;100.00
6387;BME280;3226;42.162;24.756;2024-01-10T02:53:09;100982.03;;;-1.86;100.00
6387;BME280;3226;42.162;24.756;2024-01-10T02:55:37;100981.41;;;-2.11;100.00
6387;BME280;3226;42.162;24.756;2024-01-10T02:58:05;100987.25;;;-1.95;100.00
6387;BME280;3226;42.162;24.756;2024-01-10T03:00:35;100967.63;;;-2.03;100.00
6387;BME280;3226;42.162;24.756;2024-01-10T03:03:02;100992.25;;;-1.80;100.00
6387;BME280;3226;42.162;24.756;2024-01-10T03:05:30;100985.41;;;-1.81;100.00
6387;BME280;3226;42.162;24.756;2024-01-10T03:07:58;100980.34;;;-1.87;100.00
6387;BME280;3226;42.162;24.756;2024-01-10T03:10:27;100982.84;;;-1.81;100.00
6387;BME280;3226;42.162;24.756;2024-01-10T03:12:55;100987.03;;;-1.73;100.00
6387;BME280;3226;42.162;24.756;2024-01-10T03:15:23;100976.81;;;-1.77;100.00
6387;BME280;3226;42.162;24.756;2024-01-10T03:17:53;100977.69;;;-1.81;100.00
6387;BME280;3226;42.162;24.756;2024-01-10T03:20:21;100975.97;;;-1.80;100.00
6387;BME280;3226;42.162;24.756;2024-01-10T03:22:49;100930.13;;;-2.19;100.00
6387;BME280;3226;42.162;24.756;2024-01-10T03:25:17;100965.88;;;-2.00;100.00
6387;BME280;3226;42.162;24.756;2024-01-10T03:27:45;100973.59;;;-2.00;100.00
6387;BME280;3226;42.162;24.756;2024-01-10T03:30:14;100966.84;;;-2.09;100.00
6387;BME280;3226;42.162;24.756;2024-01-10T03:32:45;100932.84;;;-2.38;100.00
6387;BME280;3226;42.162;24.756;2024-01-10T03:35:14;100968.63;;;-2.19;100.00
6387;BME280;3226;42.162;24.756;2024-01-10T03:37:42;100971.13;;;-2.10;100.00
6387;BME280;3226;42.162;24.756;2024-01-10T03:40:11;100977.09;;;-2.06;100.00
6387;BME280;3226;42.162;24.756;2024-01-10T03:42:39;100974.53;;;-2.06;100.00
6387;BME280;3226;42.162;24.756;2024-01-10T03:45:07;100971.16;;;-2.11;100.00
6387;BME280;3226;42.162;24.756;2024-01-10T03:47:35;100971.91;;;-2.00;100.00
6387;BME280;3226;42.162;24.756;2024-01-10T03:50:04;100944.75;;;-2.27;100.00
6387;BME280;3226;42.162;24.756;2024-01-10T03:52:33;100972.94;;;-2.23;100.00
6387;BME280;3226;42.162;24.756;2024-01-10T03:55:01;100972.97;;;-2.24;100.00
6387;BME280;3226;42.162;24.756;2024-01-10T03:57:29;100972.13;;;-2.28;100.00
6387;BME280;3226;42.162;24.756;2024-01-10T03:59:57;100979.66;;;-2.06;100.00
6387;BME280;3226;42.162;24.756;2024-01-10T04:02:25;100987.25;;;-1.94;100.00
6387;BME280;3226;42.162;24.756;2024-01-10T04:04:54;100988.97;;;-1.97;100.00
6387;BME280;3226;42.162;24.756;2024-01-10T04:07:22;100942.19;;;-2.30;100.00
6387;BME280;3226;42.162;24.756;2024-01-10T04:09:52;100984.78;;;-2.08;100.00
6387;BME280;3226;42.162;24.756;2024-01-10T04:12:20;100972.84;;;-2.13;100.00
6387;BME280;3226;42.162;24.756;2024-01-10T04:14:48;100981.25;;;-1.97;100.00
6387;BME280;3226;42.162;24.756;2024-01-10T04:17:16;100980.66;;;-2.26;100.00
6387;BME280;3226;42.162;24.756;2024-01-10T04:19:44;100981.47;;;-2.19;100.00
6387;BME280;3226;42.162;24.756;2024-01-10T04:22:12;100985.66;;;-2.07;100.00
6387;BME280;3226;42.162;24.756;2024-01-10T04:24:40;100996.06;;;-2.24;100.00
6387;BME280;3226;42.162;24.756;2024-01-10T04:27:09;100972.31;;;-2.51;100.00
6387;BME280;3226;42.162;24.756;2024-01-10T04:29:37;100939.06;;;-2.68;100.00
6387;BME280;3226;42.162;24.756;2024-01-10T04:32:06;100992.78;;;-2.45;100.00
6387;BME280;3226;42.162;24.756;2024-01-10T04:34:34;100997.03;;;-2.44;100.00
6387;BME280;3226;42.162;24.756;2024-01-10T04:37:02;101002.19;;;-2.44;100.00
6387;BME280;3226;42.162;24.756;2024-01-10T04:39:30;100999.56;;;-2.38;100.00
6387;BME280;3226;42.162;24.756;2024-01-10T04:41:59;101005.53;;;-2.36;100.00
6387;BME280;3226;42.162;24.756;2024-01-10T04:44:28;101005.53;;;-2.36;100.00
6387;BME280;3226;42.162;24.756;2024-01-10T04:46:56;101008.22;;;-2.51;100.00
6387;BME280;3226;42.162;24.756;2024-01-10T04:49:24;101020.09;;;-2.36;100.00
6387;BME280;3226;42.162;24.756;2024-01-10T04:51:52;101017.47;;;-2.32;100.00
6387;BME280;3226;42.162;24.756;2024-01-10T04:54:20;101022.63;;;-2.35;100.00
6387;BME280;3226;42.162;24.756;2024-01-10T04:56:48;101018.28;;;-2.22;100.00
6387;BME280;3226;42.162;24.756;2024-01-10T04:59:16;101007.22;;;-2.30;100.00
6387;BME280;3226;42.162;24.756;2024-01-10T05:01:45;101009.88;;;-2.44;100.00
6387;BME280;3226;42.162;24.756;2024-01-10T05:04:14;101010.00;;;-2.63;100.00
6387;BME280;3226;42.162;24.756;2024-01-10T05:06:43;100639.75;;;-4.89;100.00
6387;BME280;3226;42.162;24.756;2024-01-10T05:09:13;100986.28;;;-2.99;100.00
6387;BME280;3226;42.162;24.756;2024-01-10T05:11:41;101013.47;;;-2.73;100.00
6387;BME280;3226;42.162;24.756;2024-01-10T05:14:10;100918.91;;;-3.30;100.00
6387;BME280;3226;42.162;24.756;2024-01-10T05:16:38;101037.38;;;-2.71;100.00
6387;BME280;3226;42.162;24.756;2024-01-10T05:19:08;101030.50;;;-2.61;100.00
6387;BME280;3226;42.162;24.756;2024-01-10T05:21:36;101038.19;;;-2.61;100.00
6387;BME280;3226;42.162;24.756;2024-01-10T05:24:04;101036.59;;;-2.79;100.00
6387;BME280;3226;42.162;24.756;2024-01-10T05:26:32;101039.13;;;-2.73;100.00
6387;BME280;3226;42.162;24.756;2024-01-10T05:29:00;101044.19;;;-2.60;100.00
6387;BME280;3226;42.162;24.756;2024-01-10T05:31:28;101030.56;;;-2.72;100.00
6387;BME280;3226;42.162;24.756;2024-01-10T05:33:56;101044.19;;;-2.62;100.00
6387;BME280;3226;42.162;24.756;2024-01-10T05:36:26;101035.66;;;-2.64;100.00
6387;BME280;3226;42.162;24.756;2024-01-10T05:38:54;101048.41;;;-2.52;100.00
6387;BME280;3226;42.162;24.756;2024-01-10T05:41:22;101057.03;;;-2.65;100.00
6387;BME280;3226;42.162;24.756;2024-01-10T05:43:51;100865.31;;;-3.75;100.00
6387;BME280;3226;42.162;24.756;2024-01-10T05:46:19;101054.47;;;-2.60;100.00
6387;BME280;3226;42.162;24.756;2024-01-10T05:48:47;101049.34;;;-2.64;100.00
6387;BME280;3226;42.162;24.756;2024-01-10T05:51:16;101005.88;;;-2.93;100.00
6387;BME280;3226;42.162;24.756;2024-01-10T05:53:45;101045.06;;;-2.66;100.00
6387;BME280;3226;42.162;24.756;2024-01-10T05:56:13;100937.72;;;-3.31;100.00
6387;BME280;3226;42.162;24.756;2024-01-10T05:58:41;101048.50;;;-2.69;100.00
6387;BME280;3226;42.162;24.756;2024-01-10T06:01:09;101036.59;;;-2.82;100.00
6387;BME280;3226;42.162;24.756;2024-01-10T06:03:37;101026.34;;;-2.82;100.00
6387;BME280;3226;42.162;24.756;2024-01-10T06:06:06;101057.88;;;-2.68;100.00
6387;BME280;3226;42.162;24.756;2024-01-10T06:08:34;101038.28;;;-2.73;100.00
6387;BME280;3226;42.162;24.756;2024-01-10T06:11:04;101056.09;;;-2.47;100.00
6387;BME280;3226;42.162;24.756;2024-01-10T06:13:35;101062.91;;;-2.46;100.00
6387;BME280;3226;42.162;24.756;2024-01-10T06:16:19;101068.09;;;-2.52;100.00
6387;BME280;3226;42.162;24.756;2024-01-10T06:18:47;101074.94;;;-2.51;100.00
6387;BME280;3226;42.162;24.756;2024-01-10T06:21:16;101078.28;;;-2.40;100.00
6387;BME280;3226;42.162;24.756;2024-01-10T06:23:44;101074.03;;;-2.49;100.00
6387;BME280;3226;42.162;24.756;2024-01-10T06:26:13;101079.16;;;-2.44;100.00
6387;BME280;3226;42.162;24.756;2024-01-10T06:28:42;101096.25;;;-2.38;100.00
6387;BME280;3226;42.162;24.756;2024-01-10T06:31:10;101029.78;;;-2.82;100.00
6387;BME280;3226;42.162;24.756;2024-01-10T06:33:38;101101.41;;;-2.46;100.00
6387;BME280;3226;42.162;24.756;2024-01-10T06:36:07;101047.69;;;-2.77;100.00
6387;BME280;3226;42.162;24.756;2024-01-10T06:38:35;101081.81;;;-2.66;100.00
6387;BME280;3226;42.162;24.756;2024-01-10T06:41:07;101117.66;;;-2.47;100.00
6387;BME280;3226;42.162;24.756;2024-01-10T06:43:37;101123.69;;;-2.54;100.00
6387;BME280;3226;42.162;24.756;2024-01-10T06:46:05;101119.50;;;-2.77;100.00
6387;BME280;3226;42.162;24.756;2024-01-10T06:48:34;101112.66;;;-2.77;100.00
6387;BME280;3226;42.162;24.756;2024-01-10T06:51:09;101120.34;;;-2.75;100.00
6387;BME280;3226;42.162;24.756;2024-01-10T06:53:40;101117.78;;;-2.78;100.00
6387;BME280;3226;42.162;24.756;2024-01-10T06:56:09;101117.72;;;-2.66;100.00
6387;BME280;3226;42.162;24.756;2024-01-10T06:58:39;101126.22;;;-2.51;100.00
6387;BME280;3226;42.162;24.756;2024-01-10T07:01:11;101116.03;;;-2.64;100.00
6387;BME280;3226;42.162;24.756;2024-01-10T07:03:40;101125.38;;;-2.53;100.00
6387;BME280;3226;42.162;24.756;2024-01-10T07:06:09;101092.16;;;-2.84;100.00
6387;BME280;3226;42.162;24.756;2024-01-10T07:08:37;101134.72;;;-2.40;100.00
6387;BME280;3226;42.162;24.756;2024-01-10T07:11:05;101136.38;;;-2.26;100.00
6387;BME280;3226;42.162;24.756;2024-01-10T07:13:33;101138.06;;;-2.22;100.00
6387;BME280;3226;42.162;24.756;2024-01-10T07:16:03;101131.34;;;-2.43;100.00
6387;BME280;3226;42.162;24.756;2024-01-10T07:18:31;101138.19;;;-2.49;100.00
6387;BME280;3226;42.162;24.756;2024-01-10T07:21:00;101133.91;;;-2.47;100.00
6387;BME280;3226;42.162;24.756;2024-01-10T07:23:28;101140.63;;;-2.22;100.00
6387;BME280;3226;42.162;24.756;2024-01-10T07:25:57;101099.66;;;-2.36;100.00
6387;BME280;3226;42.162;24.756;2024-01-10T07:28:25;101149.81;;;-1.84;100.00
6387;BME280;3226;42.162;24.756;2024-01-10T07:30:53;101105.44;;;-2.05;100.00
6387;BME280;3226;42.162;24.756;2024-01-10T07:33:23;101151.47;;;-1.78;100.00
6387;BME280;3226;42.162;24.756;2024-01-10T07:35:51;101164.25;;;-1.66;100.00
6387;BME280;3226;42.162;24.756;2024-01-10T07:38:20;101156.59;;;-1.77;100.00
6387;BME280;3226;42.162;24.756;2024-01-10T07:40:49;101149.75;;;-1.76;100.00
6387;BME280;3226;42.162;24.756;2024-01-10T07:43:18;101155.59;;;-1.55;100.00
6387;BME280;3226;42.162;24.756;2024-01-10T07:45:46;101161.69;;;-1.70;100.00
6387;BME280;3226;42.162;24.756;2024-01-10T07:48:14;101163.41;;;-1.68;100.00
6387;BME280;3226;42.162;24.756;2024-01-10T07:50:44;101168.56;;;-1.72;100.00
6387;BME280;3226;42.162;24.756;2024-01-10T07:53:12;101167.97;;;-2.16;100.00
6387;BME280;3226;42.162;24.756;2024-01-10T07:55:40;101172.31;;;-2.28;100.00
6387;BME280;3226;42.162;24.756;2024-01-10T07:58:09;101161.28;;;-2.52;100.00
6387;BME280;3226;42.162;24.756;2024-01-10T08:00:37;101172.38;;;-2.40;100.00
6387;BME280;3226;42.162;24.756;2024-01-10T08:03:05;101171.56;;;-2.58;100.00
6387;BME280;3226;42.162;24.756;2024-01-10T08:05:33;101177.50;;;-2.42;100.00
6387;BME280;3226;42.162;24.756;2024-01-10T08:08:04;101171.53;;;-2.49;100.00
6387;BME280;3226;42.162;24.756;2024-01-10T08:10:32;101153.56;;;-2.44;100.00
6387;BME280;3226;42.162;24.756;2024-01-10T08:13:03;101162.13;;;-2.50;100.00
6387;BME280;3226;42.162;24.756;2024-01-10T08:15:31;101168.13;;;-2.46;100.00
6387;BME280;3226;42.162;24.756;2024-01-10T08:18:01;101177.44;;;-2.28;100.00
6387;BME280;3226;42.162;24.756;2024-01-10T08:20:29;101120.31;;;-2.69;100.00
6387;BME280;3226;42.162;24.756;2024-01-10T08:22:58;101122.03;;;-2.74;100.00
6387;BME280;3226;42.162;24.756;2024-01-10T08:25:27;101153.53;;;-2.41;100.00
6387;BME280;3226;42.162;24.756;2024-01-10T08:27:56;101164.63;;;-2.33;100.00
6387;BME280;3226;42.162;24.756;2024-01-10T08:30:25;101162.06;;;-2.26;98.42
6387;BME280;3226;42.162;24.756;2024-01-10T08:32:53;101168.81;;;-2.18;96.46
6387;BME280;3226;42.162;24.756;2024-01-10T08:35:21;101162.06;;;-2.34;95.38
6387;BME280;3226;42.162;24.756;2024-01-10T08:37:54;101127.88;;;-2.36;96.62
6387;BME280;3226;42.162;24.756;2024-01-10T08:40:22;101167.88;;;-1.98;94.44
6387;BME280;3226;42.162;24.756;2024-01-10T08:42:53;101166.00;;;-1.76;90.52
6387;BME280;3226;42.162;24.756;2024-01-10T08:45:21;101173.75;;;-1.82;88.71
6387;BME280;3226;42.162;24.756;2024-01-10T08:47:50;101041.59;;;-2.59;85.60
6387;BME280;3226;42.162;24.756;2024-01-10T08:50:20;101171.19;;;-1.82;86.85
6387;BME280;3226;42.162;24.756;2024-01-10T08:52:48;101092.69;;;-2.22;86.20
6387;BME280;3226;42.162;24.756;2024-01-10T08:55:17;100908.81;;;-3.63;86.62
6387;BME280;3226;42.162;24.756;2024-01-10T08:57:45;101109.78;;;-2.18;86.84
6387;BME280;3226;42.162;24.756;2024-01-10T09:00:16;101141.28;;;-1.89;86.27
6387;BME280;3226;42.162;24.756;2024-01-10T09:02:44;101156.56;;;-1.73;85.58
6387;BME280;3226;42.162;24.756;2024-01-10T09:05:12;101158.28;;;-1.71;86.61
6387;BME280;3226;42.162;24.756;2024-01-10T09:07:40;101157.47;;;-1.78;88.98
6387;BME280;3226;42.162;24.756;2024-01-10T09:10:09;100968.19;;;-2.76;88.20
6387;BME280;3226;42.162;24.756;2024-01-10T09:12:38;101136.84;;;-1.67;84.79
6387;BME280;3226;42.162;24.756;2024-01-10T09:15:10;101077.84;;;-1.78;85.73
6387;BME280;3226;42.162;24.756;2024-01-10T09:17:42;101144.34;;;-1.45;86.70
6387;BME280;3226;42.162;24.756;2024-01-10T09:20:11;101139.34;;;-1.56;86.97
6387;BME280;3226;42.162;24.756;2024-01-10T09:22:39;101149.53;;;-1.48;86.74
6387;BME280;3226;42.162;24.756;2024-01-10T09:25:08;101139.28;;;-1.50;89.40
6387;BME280;3226;42.162;24.756;2024-01-10T09:27:36;101141.84;;;-1.51;91.21
6387;BME280;3226;42.162;24.756;2024-01-10T09:30:05;101146.91;;;-1.42;91.28
6387;BME280;3226;42.162;24.756;2024-01-10T09:32:36;101065.84;;;-1.74;89.36
6387;BME280;3226;42.162;24.756;2024-01-10T09:35:06;101014.38;;;-1.65;91.85
6387;BME280;3226;42.162;24.756;2024-01-10T09:37:35;101138.59;;;-0.83;92.95
6387;BME280;3226;42.162;24.756;2024-01-10T09:40:04;101066.03;;;-1.10;94.87
6387;BME280;3226;42.162;24.756;2024-01-10T09:42:33;101129.78;;;-0.60;96.32
6387;BME280;3226;42.162;24.756;2024-01-10T09:45:04;101133.13;;;-0.55;98.54
6387;BME280;3226;42.162;24.756;2024-01-10T09:47:32;101130.44;;;-0.46;100.00
6387;BME280;3226;42.162;24.756;2024-01-10T09:50:06;101126.16;;;-0.45;100.00
6387;BME280;3226;42.162;24.756;2024-01-10T09:52:40;101130.94;;;-0.20;100.00
6387;BME280;3226;42.162;24.756;2024-01-10T09:55:09;101120.00;;;-0.36;100.00
6387;BME280;3226;42.162;24.756;2024-01-10T09:57:40;101125.16;;;-0.35;100.00
6387;BME280;3226;42.162;24.756;2024-01-10T10:00:11;101118.50;;;0.11;100.00
6387;BME280;3226;42.162;24.756;2024-01-10T10:02:39;101120.59;;;0.41;100.00
6387;BME280;3226;42.162;24.756;2024-01-10T10:05:13;101116.53;;;0.27;100.00
6387;BME280;3226;42.162;24.756;2024-01-10T10:07:46;101118.84;;;-0.12;100.00
6387;BME280;3226;42.162;24.756;2024-01-10T10:10:15;101104.69;;;0.14;100.00
6387;BME280;3226;42.162;24.756;2024-01-10T10:12:43;101100.34;;;0.19;100.00
6387;BME280;3226;42.162;24.756;2024-01-10T10:15:13;101098.00;;;0.04;100.00
6387;BME280;3226;42.162;24.756;2024-01-10T10:17:43;101102.38;;;-0.02;100.00
6387;BME280;3226;42.162;24.756;2024-01-10T10:20:20;101100.00;;;0.39;100.00
6387;BME280;3226;42.162;24.756;2024-01-10T10:22:59;101095.44;;;0.55;100.00
6387;BME280;3226;42.162;24.756;2024-01-10T10:25:29;101087.31;;;0.28;100.00
6387;BME280;3226;42.162;24.756;2024-01-10T10:27:58;101088.19;;;-0.31;98.05
6387;BME280;3226;42.162;24.756;2024-01-10T10:30:28;101090.38;;;-0.04;98.34
6387;BME280;3226;42.162;24.756;2024-01-10T10:32:56;101086.81;;;0.05;97.42
6387;BME280;3226;42.162;24.756;2024-01-10T10:35:25;101029.41;;;-0.60;94.95
6387;BME280;3226;42.162;24.756;2024-01-10T10:38:07;100775.28;;;-2.18;95.21
6387;BME280;3226;42.162;24.756;2024-01-10T10:40:37;101051.38;;;-0.36;96.03
6387;BME280;3226;42.162;24.756;2024-01-10T10:43:08;101074.28;;;-0.17;95.63
6387;BME280;3226;42.162;24.756;2024-01-10T10:45:43;101032.16;;;-0.15;96.12
6387;BME280;3226;42.162;24.756;2024-01-10T10:48:16;101030.72;;;0.21;97.14
6387;BME280;3226;42.162;24.756;2024-01-10T10:50:50;101046.78;;;0.38;96.11
6387;BME280;3226;42.162;24.756;2024-01-10T10:53:22;101059.56;;;0.43;91.49
6387;BME280;3226;42.162;24.756;2024-01-10T10:55:53;101051.72;;;-0.03;92.78
6387;BME280;3226;42.162;24.756;2024-01-10T10:58:22;101046.97;;;0.26;93.91
6387;BME280;3226;42.162;24.756;2024-01-10T11:00:51;100986.72;;;-0.17;92.97
6387;BME280;3226;42.162;24.756;2024-01-10T11:03:21;101048.63;;;0.77;95.08
6387;BME280;3226;42.162;24.756;2024-01-10T11:05:54;101037.59;;;0.69;94.86
6387;BME280;3226;42.162;24.756;2024-01-10T11:08:24;101046.78;;;0.82;93.67
6387;BME280;3226;42.162;24.756;2024-01-10T11:10:53;101018.44;;;0.37;92.10
6387;BME280;3226;42.162;24.756;2024-01-10T11:13:28;101027.97;;;0.77;92.07
6387;BME280;3226;42.162;24.756;2024-01-10T11:19:37;101030.69;;;1.13;87.26
6387;BME280;3226;42.162;24.756;2024-01-10T11:22:22;101030.31;;;1.32;84.21
6387;BME280;3226;42.162;24.756;2024-01-10T11:24:57;101026.25;;;0.78;82.58
6387;BME280;3226;42.162;24.756;2024-01-10T11:27:28;101023.44;;;0.45;82.87
6387;BME280;3226;42.162;24.756;2024-01-10T11:29:58;101006.91;;;0.08;88.34
6387;BME280;3226;42.162;24.756;2024-01-10T11:32:27;100975.72;;;0.23;89.77
6387;BME280;3226;42.162;24.756;2024-01-10T11:34:57;101016.03;;;0.26;88.77
6387;BME280;3226;42.162;24.756;2024-01-10T11:37:38;101008.00;;;-0.06;90.48
6387;BME280;3226;42.162;24.756;2024-01-10T11:40:08;101010.34;;;0.08;92.80
6387;BME280;3226;42.162;24.756;2024-01-10T11:42:44;101006.78;;;0.16;91.79
6387;BME280;3226;42.162;24.756;2024-01-10T11:45:36;101008.13;;;0.35;90.75
6387;BME280;3226;42.162;24.756;2024-01-10T11:48:07;100999.13;;;0.60;90.53
6387;BME280;3226;42.162;24.756;2024-01-10T11:50:52;101000.00;;;0.59;89.32
6387;BME280;3226;42.162;24.756;2024-01-10T11:53:38;101003.03;;;0.34;87.36
6387;BME280;3226;42.162;24.756;2024-01-10T11:56:10;100991.53;;;0.52;86.47
6387;BME280;3226;42.162;24.756;2024-01-10T11:58:52;100988.47;;;0.75;86.10
6387;BME280;3226;42.162;24.756;2024-01-10T12:01:22;100971.72;;;0.96;87.03
6387;BME280;3226;42.162;24.756;2024-01-10T12:03:53;100985.34;;;1.41;87.46
6387;BME280;3226;42.162;24.756;2024-01-10T12:06:41;100982.53;;;1.52;83.87
6387;BME280;3226;42.162;24.756;2024-01-10T12:09:09;100980.25;;;1.39;84.23
6387;BME280;3226;42.162;24.756;2024-01-10T12:11:40;100974.09;;;1.45;83.46
6387;BME280;3226;42.162;24.756;2024-01-10T12:14:09;100968.88;;;1.47;82.62
6387;BME280;3226;42.162;24.756;2024-01-10T12:16:37;100980.81;;;1.52;82.86
6387;BME280;3226;42.162;24.756;2024-01-10T12:19:06;100978.16;;;1.54;82.16
6387;BME280;3226;42.162;24.756;2024-01-10T12:21:34;100968.56;;;1.61;82.29
6387;BME280;3226;42.162;24.756;2024-01-10T12:24:05;100962.66;;;1.55;84.12
6387;BME280;3226;42.162;24.756;2024-01-10T12:26:33;100963.50;;;1.56;81.56
6387;BME280;3226;42.162;24.756;2024-01-10T12:29:02;100956.53;;;1.59;80.50
6387;BME280;3226;42.162;24.756;2024-01-10T12:31:33;100960.88;;;1.57;79.59
6387;BME280;3226;42.162;24.756;2024-01-10T12:34:01;100955.81;;;1.53;79.12
6387;BME280;3226;42.162;24.756;2024-01-10T12:36:33;100957.00;;;1.76;79.56
6387;BME280;3226;42.162;24.756;2024-01-10T12:39:04;100943.28;;;1.73;78.44
6387;BME280;3226;42.162;24.756;2024-01-10T12:41:33;100959.16;;;1.93;79.45
6387;BME280;3226;42.162;24.756;2024-01-10T12:44:03;100961.41;;;2.05;78.93
6387;BME280;3226;42.162;24.756;2024-01-10T12:46:33;100966.00;;;1.95;78.24
6387;BME280;3226;42.162;24.756;2024-01-10T12:49:02;100908.53;;;1.85;77.29
6387;BME280;3226;42.162;24.756;2024-01-10T12:51:32;100958.28;;;1.94;72.81
6387;BME280;3226;42.162;24.756;2024-01-10T12:54:04;100952.84;;;2.03;72.81
6387;BME280;3226;42.162;24.756;2024-01-10T12:56:32;100955.41;;;2.05;72.09
6387;BME280;3226;42.162;24.756;2024-01-10T12:59:00;100951.59;;;2.18;72.85
6387;BME280;3226;42.162;24.756;2024-01-10T13:01:28;100953.66;;;2.05;72.64
6387;BME280;3226;42.162;24.756;2024-01-10T13:03:56;100950.78;;;1.83;71.77
6387;BME280;3226;42.162;24.756;2024-01-10T13:06:25;100943.16;;;2.11;71.08
6387;BME280;3226;42.162;24.756;2024-01-10T13:08:53;100923.34;;;1.79;70.56
6387;BME280;3226;42.162;24.756;2024-01-10T13:11:23;100956.84;;;1.82;69.90